Time;durP1;ratioP1;P1;durP2;ratioP2;P2;SDS_P1;SDS_P2;PMS_P1;PMS_P2;Temp;Humidity;BMP_temperature;BMP_pressure;BME280_temperature;BME280_humidity;BME280_pressure;Samples;Min_cycle;Max_cycle;Signal;HPM_P1;HPM_P2
2023/03/18 00:01:34;;;;;;;;;;;;;;;;;;5018452;28;20306;-84
2023/03/18 00:04:00;;;;;;;;;;;;;;;;;;5023081;28;19924;-84
2023/03/18 00:06:25;;;;;;;;;;;;;;;;;;5023828;28;20295;-84
2023/03/18 00:08:51;;;;;;;;;;;;;;;;;;5017117;28;20037;-84
2023/03/18 00:11:17;;;;;;;;;;;;;;;;;;5019675;28;19913;-85
2023/03/18 00:13:42;;;;;;;;;;;;;;;;;;5019416;28;20060;-86
2023/03/18 00:16:09;;;;;;;;;;;;;;;;;;5023273;28;20432;-84
2023/03/18 00:18:34;;;;;;;;;;;;;;;;;;5015011;28;19921;-84
2023/03/18 00:20:59;;;;;;;;;;;;;;;;;;5019161;28;19914;-85
2023/03/18 00:23:25;;;;;;;;;;;;;;;;;;5021259;28;19920;-84
2023/03/18 00:25:50;;;;;;;;;;;;;;;;;;5022824;28;20279;-84
2023/03/18 00:28:15;;;;;;;;;;;;;;;;;;5021256;28;20511;-83
2023/03/18 00:30:41;;;;;;;;;;;;;;;;;;5016328;28;19917;-84
2023/03/18 00:33:06;;;;;;;;;;;;;;;;;;5022566;28;19956;-84
2023/03/18 00:35:32;;;;;;;;;;;;;;;;;;5020664;28;19919;-84
2023/03/18 00:37:57;;;;;;;;;;;;;;;;;;5015454;28;19920;-84
2023/03/18 00:40:28;;;;;;;;;;;;;;;;;;5019104;28;19916;-85
2023/03/18 00:43:00;;;;;;;;;;;;;;;;;;5019549;28;19928;-84
2023/03/18 00:45:25;;;;;;;;;;;;;;;;;;5017411;28;20315;-86
2023/03/18 00:47:51;;;;;;;;;;;;;;;;;;5017836;28;20011;-85
2023/03/18 00:50:17;;;;;;;;;;;;;;;;;;5018990;28;19954;-85
2023/03/18 00:52:42;;;;;;;;;;;;;;;;;;5018501;28;20028;-84
2023/03/18 00:55:08;;;;;;;;;;;;;;;;;;5019899;28;20369;-84
2023/03/18 00:57:33;;;;;;;;;;;;;;;;;;5018632;28;19982;-84
2023/03/18 00:59:58;;;;;;;;;;;;;;;;;;5019739;28;19919;-84
2023/03/18 01:02:23;;;;;;;;;;;;;;;;;;5020164;28;19913;-84
2023/03/18 01:04:49;;;;;;;;;;;;;;;;;;5016409;28;19921;-84
2023/03/18 01:07:15;;;;;;;;;;;;;;;;;;5019769;28;19917;-84
2023/03/18 01:09:40;;;;;;;;;;;;;;;;;;5019148;28;20409;-84
2023/03/18 01:12:05;;;;;;;;;;;;;;;;;;5020013;28;20018;-84
2023/03/18 01:14:30;;;;;;;;;;;;;;;;;;5018146;28;19913;-84
2023/03/18 01:16:56;;;;;;;;;;;;;;;;;;5016600;28;19952;-84
2023/03/18 01:19:22;;;;;;;;;;;;;;;;;;5019203;28;19940;-85
2023/03/18 01:21:47;;;;;;;;;;;;;;;;;;5020974;28;20363;-84
2023/03/18 01:24:12;;;;;;;;;;;;;;;;;;5021223;28;20374;-84
2023/03/18 01:26:38;;;;;;;;;;;;;;;;;;5016497;28;20417;-85
2023/03/18 01:29:03;;;;;;;;;;;;;;;;;;5021232;28;19918;-84
2023/03/18 01:31:28;;;;;;;;;;;;;;;;;;5019037;28;19913;-85
2023/03/18 01:33:54;;;;;;;;;;;;;;;;;;5016904;28;20329;-84
2023/03/18 01:36:20;;;;;;;;;;;;;;;;;;5019026;28;19920;-85
2023/03/18 01:38:46;;;;;;;;;;;;;;;;;;5015664;28;19921;-84
2023/03/18 01:41:11;;;;;;;;;;;;;;;;;;5019805;28;20513;-85
2023/03/18 01:43:37;;;;;;;;;;;;;;;;;;5013201;28;19921;-84
2023/03/18 01:46:02;;;;;;;;;;;;;;;;;;5020131;28;19921;-85
2023/03/18 01:48:28;;;;;;;;;;;;;;;;;;5018248;28;19913;-84
2023/03/18 01:50:53;;;;;;;;;;;;;;;;;;5019870;28;19940;-84
2023/03/18 01:53:18;;;;;;;;;;;;;;;;;;5020133;28;19923;-83
2023/03/18 01:55:44;;;;;;;;;;;;;;;;;;5016881;28;19925;-84
2023/03/18 01:58:10;;;;;;;;;;;;;;;;;;5020845;28;19913;-84
2023/03/18 02:00:36;;;;;;;;;;;;;;;;;;5016764;28;19917;-84
2023/03/18 02:03:01;;;;;;;;;;;;;;;;;;5020258;28;19945;-84
2023/03/18 02:05:26;;;;;;;;;;;;;;;;;;5020423;28;19917;-85
2023/03/18 02:07:51;;;;;;;;;;;;;;;;;;5013028;28;20152;-85
2023/03/18 02:10:17;;;;;;;;;;;;;;;;;;5022570;28;19924;-84
2023/03/18 02:12:42;;;;;;;;;;;;;;;;;;5012909;28;20403;-83
2023/03/18 02:15:09;;;;;;;;;;;;;;;;;;5020215;28;19913;-85
2023/03/18 02:17:34;;;;;;;;;;;;;;;;;;5013517;28;19912;-84
2023/03/18 02:20:00;;;;;;;;;;;;;;;;;;5018141;28;19913;-83
2023/03/18 02:22:25;;;;;;;;;;;;;;;;;;5017625;28;19976;-84
2023/03/18 02:24:50;;;;;;;;;;;;;;;;;;5016125;28;19925;-84
2023/03/18 02:27:15;;;;;;;;;;;;;;;;;;5017614;28;19929;-84
2023/03/18 02:29:41;;;;;;;;;;;;;;;;;;5015448;28;19925;-84
2023/03/18 02:32:06;;;;;;;;;;;;;;;;;;5012845;28;20004;-84
2023/03/18 02:34:31;;;;;;;;;;;;;;;;;;5016108;28;20102;-86
2023/03/18 02:36:56;;;;;;;;;;;;;;;;;;5014234;28;19982;-84
2023/03/18 02:39:22;;;;;;;;;;;;;;;;;;5014618;28;20338;-84
2023/03/18 02:41:47;;;;;;;;;;;;;;;;;;5015605;28;20024;-84
2023/03/18 02:44:12;;;;;;;;;;;;;;;;;;5016359;28;20429;-84
2023/03/18 02:46:38;;;;;;;;;;;;;;;;;;5015653;28;19921;-84
2023/03/18 02:49:04;;;;;;;;;;;;;;;;;;5016082;28;20023;-84
2023/03/18 02:51:29;;;;;;;;;;;;;;;;;;5017302;28;19959;-86
2023/03/18 02:53:54;;;;;;;;;;;;;;;;;;5018456;28;20413;-84
2023/03/18 02:56:19;;;;;;;;;;;;;;;;;;5022009;28;19917;-85
2023/03/18 02:58:44;;;;;;;;;;;;;;;;;;5017099;28;20001;-84
2023/03/18 03:01:10;;;;;;;;;;;;;;;;;;5022450;28;19921;-84
2023/03/18 03:03:35;;;;;;;;;;;;;;;;;;5020840;28;20367;-84
2023/03/18 03:06:00;;;;;;;;;;;;;;;;;;5022640;28;19921;-84
2023/03/18 03:08:25;;;;;;;;;;;;;;;;;;5018212;28;19913;-84
2023/03/18 03:10:51;;;;;;;;;;;;;;;;;;5021711;28;19963;-84
2023/03/18 03:13:16;;;;;;;;;;;;;;;;;;5022387;28;19920;-84
2023/03/18 03:15:41;;;;;;;;;;;;;;;;;;5021001;28;20000;-84
2023/03/18 03:18:07;;;;;;;;;;;;;;;;;;5017588;28;19913;-84
2023/03/18 03:20:34;;;;;;;;;;;;;;;;;;5020293;28;19923;-86
2023/03/18 03:23:00;;;;;;;;;;;;;;;;;;5020378;28;19940;-85
2023/03/18 03:25:26;;;;;;;;;;;;;;;;;;5023414;28;20362;-84
2023/03/18 03:27:51;;;;;;;;;;;;;;;;;;5013618;28;19956;-84
2023/03/18 03:30:17;;;;;;;;;;;;;;;;;;5021950;28;19963;-84
2023/03/18 03:32:42;;;;;;;;;;;;;;;;;;5016930;28;19917;-85
2023/03/18 03:35:08;;;;;;;;;;;;;;;;;;5021741;28;20359;-84
2023/03/18 03:37:33;;;;;;;;;;;;;;;;;;5014607;28;19928;-84
2023/03/18 03:39:58;;;;;;;;;;;;;;;;;;5020230;28;19921;-84
2023/03/18 03:42:24;;;;;;;;;;;;;;;;;;5020671;28;19925;-84
2023/03/18 03:44:49;;;;;;;;;;;;;;;;;;5016743;28;20506;-84
2023/03/18 03:47:14;;;;;;;;;;;;;;;;;;5020069;28;20338;-84
2023/03/18 03:49:40;;;;;;;;;;;;;;;;;;5019367;28;20013;-84
2023/03/18 03:52:06;;;;;;;;;;;;;;;;;;5018598;28;19957;-84
2023/03/18 03:54:31;;;;;;;;;;;;;;;;;;5017482;28;20378;-84
2023/03/18 03:56:57;;;;;;;;;;;;;;;;;;5019461;28;20399;-84
2023/03/18 03:59:22;;;;;;;;;;;;;;;;;;5020206;28;19921;-85
2023/03/18 04:01:47;;;;;;;;;;;;;;;;;;5016988;28;20382;-85
2023/03/18 04:04:12;;;;;;;;;;;;;;;;;;5017996;28;19960;-84
2023/03/18 04:06:37;;;;;;;;;;;;;;;;;;5018989;28;20090;-85
2023/03/18 04:09:03;;;;;;;;;;;;;;;;;;5021598;28;19913;-85
2023/03/18 04:11:28;;;;;;;;;;;;;;;;;;5021200;28;19977;-84
2023/03/18 04:13:53;;;;;;;;;;;;;;;;;;5020085;28;20350;-84
2023/03/18 04:16:19;;;;;;;;;;;;;;;;;;5020865;28;19914;-84
2023/03/18 04:18:44;;;;;;;;;;;;;;;;;;5013976;28;19917;-85
2023/03/18 04:21:10;;;;;;;;;;;;;;;;;;5022222;28;20000;-84
2023/03/18 04:23:35;;;;;;;;;;;;;;;;;;5017149;28;20321;-84
2023/03/18 04:26:00;;;;;;;;;;;;;;;;;;5018910;28;19926;-84
2023/03/18 04:28:26;;;;;;;;;;;;;;;;;;5019954;28;19913;-84
2023/03/18 04:30:51;;;;;;;;;;;;;;;;;;5018788;28;19928;-84
2023/03/18 04:33:16;;;;;;;;;;;;;;;;;;5019217;28;19920;-84
2023/03/18 04:35:42;;;;;;;;;;;;;;;;;;5018001;28;19917;-85
2023/03/18 04:38:07;;;;;;;;;;;;;;;;;;5022014;28;20008;-84
2023/03/18 04:40:32;;;;;;;;;;;;;;;;;;5017441;28;20124;-84
2023/03/18 04:42:57;;;;;;;;;;;;;;;;;;5016460;28;20588;-83
2023/03/18 04:45:23;;;;;;;;;;;;;;;;;;5016650;28;19936;-85
2023/03/18 04:47:48;;;;;;;;;;;;;;;;;;5014837;28;19921;-84
2023/03/18 04:50:14;;;;;;;;;;;;;;;;;;5019915;28;19921;-84
2023/03/18 04:52:39;;;;;;;;;;;;;;;;;;5016673;28;19924;-84
2023/03/18 04:55:04;;;;;;;;;;;;;;;;;;5018677;28;20334;-83
2023/03/18 04:57:30;;;;;;;;;;;;;;;;;;5019160;28;20010;-85
2023/03/18 04:59:55;;;;;;;;;;;;;;;;;;5018821;28;19918;-84
2023/03/18 05:02:20;;;;;;;;;;;;;;;;;;5016313;28;19913;-84
2023/03/18 05:04:46;;;;;;;;;;;;;;;;;;5015147;28;19921;-85
2023/03/18 05:07:11;;;;;;;;;;;;;;;;;;5020562;28;19966;-84
2023/03/18 05:09:36;;;;;;;;;;;;;;;;;;5018282;28;19913;-83
2023/03/18 05:12:01;;;;;;;;;;;;;;;;;;5019086;28;19917;-84
2023/03/18 05:14:27;;;;;;;;;;;;;;;;;;5018359;28;19927;-84
2023/03/18 05:16:52;;;;;;;;;;;;;;;;;;5017717;28;19928;-85
2023/03/18 05:19:18;;;;;;;;;;;;;;;;;;5017636;28;19913;-86
2023/03/18 05:21:44;;;;;;;;;;;;;;;;;;5017497;28;19985;-84
2023/03/18 05:24:09;;;;;;;;;;;;;;;;;;5019168;28;19940;-85
2023/03/18 05:26:34;;;;;;;;;;;;;;;;;;5018224;28;19913;-83
2023/03/18 05:29:00;;;;;;;;;;;;;;;;;;5019357;28;19918;-85
2023/03/18 05:31:25;;;;;;;;;;;;;;;;;;5021569;28;20014;-84
2023/03/18 05:33:50;;;;;;;;;;;;;;;;;;5016666;28;19913;-84
2023/03/18 05:36:16;;;;;;;;;;;;;;;;;;5018801;28;19979;-84
2023/03/18 05:38:41;;;;;;;;;;;;;;;;;;5017909;28;20007;-84
2023/03/18 05:41:07;;;;;;;;;;;;;;;;;;5019914;28;20048;-84
2023/03/18 05:43:32;;;;;;;;;;;;;;;;;;5016481;28;20139;-86
2023/03/18 05:45:57;;;;;;;;;;;;;;;;;;5017758;28;19999;-84
2023/03/18 05:48:23;;;;;;;;;;;;;;;;;;5018481;28;19917;-84
2023/03/18 05:50:48;;;;;;;;;;;;;;;;;;5016182;28;19957;-84
2023/03/18 05:53:15;;;;;;;;;;;;;;;;;;5021805;28;20317;-81
2023/03/18 05:55:40;;;;;;;;;;;;;;;;;;5016198;28;19988;-81
2023/03/18 05:58:05;;;;;;;;;;;;;;;;;;5017919;28;20043;-82
2023/03/18 06:00:30;;;;;;;;;;;;;;;;;;5017939;28;20001;-82
2023/03/18 06:02:55;;;;;;;;;;;;;;;;;;5016941;28;20375;-81
2023/03/18 06:05:21;;;;;;;;;;;;;;;;;;5017553;28;20389;-82
2023/03/18 06:07:46;;;;;;;;;;;;;;;;;;5016859;28;20396;-81
2023/03/18 06:10:11;;;;;;;;;;;;;;;;;;5019667;28;19913;-82
2023/03/18 06:12:36;;;;;;;;;;;;;;;;;;5018634;28;19913;-82
2023/03/18 06:15:02;;;;;;;;;;;;;;;;;;5018778;28;19932;-81
2023/03/18 06:17:28;;;;;;;;;;;;;;;;;;5017128;28;20334;-81
2023/03/18 06:19:53;;;;;;;;;;;;;;;;;;5018333;28;19924;-82
2023/03/18 06:22:18;;;;;;;;;;;;;;;;;;5018809;28;20453;-82
2023/03/18 06:24:43;;;;;;;;;;;;;;;;;;5014715;28;20311;-82
2023/03/18 06:27:09;;;;;;;;;;;;;;;;;;5018665;28;19948;-81
2023/03/18 06:29:34;;;;;;;;;;;;;;;;;;5020287;28;19928;-82
2023/03/18 06:31:59;;;;;;;;;;;;;;;;;;5021919;28;20019;-81
2023/03/18 06:34:25;;;;;;;;;;;;;;;;;;5019186;28;20142;-82
2023/03/18 06:36:51;;;;;;;;;;;;;;;;;;5017285;28;20010;-82
2023/03/18 06:39:16;;;;;;;;;;;;;;;;;;5019913;28;20299;-82
2023/03/18 06:41:41;;;;;;;;;;;;;;;;;;5017711;28;19927;-82
2023/03/18 06:44:07;;;;;;;;;;;;;;;;;;5022138;28;19913;-82
2023/03/18 06:46:32;;;;;;;;;;;;;;;;;;5018167;28;19956;-81
2023/03/18 06:48:57;;;;;;;;;;;;;;;;;;5017947;28;20064;-82
2023/03/18 06:51:22;;;;;;;;;;;;;;;;;;5020430;28;20429;-82
2023/03/18 06:53:48;;;;;;;;;;;;;;;;;;5019405;28;19987;-82
2023/03/18 06:56:15;;;;;;;;;;;;;;;;;;5019789;28;20000;-82
2023/03/18 06:58:40;;;;;;;;;;;;;;;;;;5017013;28;19921;-81
2023/03/18 07:01:05;;;;;;;;;;;;;;;;;;5016991;28;19972;-82
2023/03/18 07:03:31;;;;;;;;;;;;;;;;;;5017578;28;19967;-82
2023/03/18 07:05:57;;;;;;;;;;;;;;;;;;5022193;28;20446;-82
2023/03/18 07:08:22;;;;;;;;;;;;;;;;;;5025640;28;20012;-81
2023/03/18 07:10:47;;;;;;;;;;;;;;;;;;5020631;28;20272;-82
2023/03/18 07:13:14;;;;;;;;;;;;;;;;;;5023526;28;20016;-81
2023/03/18 07:15:39;;;;;;;;;;;;;;;;;;5017858;28;20024;-82
2023/03/18 07:18:05;;;;;;;;;;;;;;;;;;5012585;28;20000;-82
2023/03/18 07:20:32;;;;;;;;;;;;;;;;;;5017118;28;20271;-82
2023/03/18 07:22:58;;;;;;;;;;;;;;;;;;5016396;28;20402;-82
2023/03/18 07:25:23;;;;;;;;;;;;;;;;;;5015778;28;19960;-82
2023/03/18 07:27:48;;;;;;;;;;;;;;;;;;5016521;28;20016;-82
2023/03/18 07:30:14;;;;;;;;;;;;;;;;;;5020236;28;19913;-81
2023/03/18 07:32:40;;;;;;;;;;;;;;;;;;5018804;28;19922;-81
2023/03/18 07:35:05;;;;;;;;;;;;;;;;;;5020849;28;19913;-82
2023/03/18 07:37:30;;;;;;;;;;;;;;;;;;5012540;28;20193;-81
2023/03/18 07:39:55;;;;;;;;;;;;;;;;;;5016233;28;19921;-81
2023/03/18 07:42:21;;;;;;;;;;;;;;;;;;5013965;28;19928;-82
2023/03/18 07:44:46;;;;;;;;;;;;;;;;;;5018401;28;20292;-82
2023/03/18 07:47:13;;;;;;;;;;;;;;;;;;5021068;28;19952;-82
2023/03/18 07:49:38;;;;;;;;;;;;;;;;;;5017102;28;19917;-82
2023/03/18 07:52:03;;;;;;;;;;;;;;;;;;5026287;28;19928;-82
2023/03/18 07:54:29;;;;;;;;;;;;;;;;;;5016350;28;20403;-82
2023/03/18 07:56:54;;;;;;;;;;;;;;;;;;5014616;28;19925;-82
2023/03/18 07:59:19;;;;;;;;;;;;;;;;;;5019196;28;19920;-82
2023/03/18 08:01:44;;;;;;;;;;;;;;;;;;5019569;28;20002;-81
2023/03/18 08:04:10;;;;;;;;;;;;;;;;;;5020329;28;19933;-82
2023/03/18 08:06:36;;;;;;;;;;;;;;;;;;5015787;28;20272;-81
2023/03/18 08:09:02;;;;;;;;;;;;;;;;;;5018060;28;19923;-82
2023/03/18 08:11:27;;;;;;;;;;;;;;;;;;5014727;28;20442;-81
2023/03/18 08:13:52;;;;;;;;;;;;;;;;;;5017350;28;20175;-82
2023/03/18 08:16:17;;;;;;;;;;;;;;;;;;5023630;28;19917;-81
2023/03/18 08:18:43;;;;;;;;;;;;;;;;;;5014462;28;20086;-81
2023/03/18 08:21:08;;;;;;;;;;;;;;;;;;5019971;28;19928;-81
2023/03/18 08:23:33;;;;;;;;;;;;;;;;;;5017693;28;19952;-81
2023/03/18 08:25:58;;;;;;;;;;;;;;;;;;5022077;28;20439;-81
2023/03/18 08:28:24;;;;;;;;;;;;;;;;;;5022416;28;19921;-81
2023/03/18 08:30:50;;;;;;;;;;;;;;;;;;5022270;28;19922;-81
2023/03/18 08:33:15;;;;;;;;;;;;;;;;;;5020491;28;20279;-81
2023/03/18 08:35:41;;;;;;;;;;;;;;;;;;5022717;28;19967;-82
2023/03/18 08:38:06;;;;;;;;;;;;;;;;;;5022143;28;19921;-81
2023/03/18 08:40:33;;;;;;;;;;;;;;;;;;5024423;28;20279;-81
2023/03/18 08:42:58;;;;;;;;;;;;;;;;;;5027799;28;20318;-81
2023/03/18 08:45:26;;;;;;;;;;;;;;;;;;5027217;28;19971;-82
2023/03/18 08:47:51;;;;;;;;;;;;;;;;;;5023944;28;19917;-82
2023/03/18 08:50:16;;;;;;;;;;;;;;;;;;5023080;28;19920;-82
2023/03/18 08:52:41;;;;;;;;;;;;;;;;;;5026542;28;20014;-81
2023/03/18 08:55:06;;;;;;;;;;;;;;;;;;5030517;28;20246;-82
2023/03/18 08:57:31;;;;;;;;;;;;;;;;;;5027968;28;19943;-82
2023/03/18 08:59:57;;;;;;;;;;;;;;;;;;5030179;28;19917;-81
2023/03/18 09:02:22;;;;;;;;;;;;;;;;;;5028732;28;19972;-81
2023/03/18 09:04:48;;;;;;;;;;;;;;;;;;5029820;28;19921;-82
2023/03/18 09:07:13;;;;;;;;;;;;;;;;;;5020290;28;20007;-82
2023/03/18 09:09:38;;;;;;;;;;;;;;;;;;5027634;28;20116;-82
2023/03/18 09:12:04;;;;;;;;;;;;;;;;;;5023547;28;19929;-82
2023/03/18 09:14:29;;;;;;;;;;;;;;;;;;5020699;28;19925;-81
2023/03/18 09:16:54;;;;;;;;;;;;;;;;;;5025243;28;19937;-82
2023/03/18 09:19:20;;;;;;;;;;;;;;;;;;5021102;28;19996;-81
2023/03/18 09:21:45;;;;;;;;;;;;;;;;;;5024133;28;20620;-82
2023/03/18 09:24:10;;;;;;;;;;;;;;;;;;5021085;28;19913;-82
2023/03/18 09:26:35;;;;;;;;;;;;;;;;;;5018295;28;19927;-82
2023/03/18 09:29:01;;;;;;;;;;;;;;;;;;5021761;28;19967;-82
2023/03/18 09:31:26;;;;;;;;;;;;;;;;;;5019981;28;19913;-82
2023/03/18 09:33:51;;;;;;;;;;;;;;;;;;5023522;28;20248;-82
2023/03/18 09:36:17;;;;;;;;;;;;;;;;;;5019520;28;20247;-81
2023/03/18 09:38:42;;;;;;;;;;;;;;;;;;5019831;28;20011;-82
2023/03/18 09:41:07;;;;;;;;;;;;;;;;;;5025106;28;19955;-81
2023/03/18 09:43:33;;;;;;;;;;;;;;;;;;5023627;28;19920;-81
2023/03/18 09:45:59;;;;;;;;;;;;;;;;;;5023179;28;19921;-82
2023/03/18 09:48:24;;;;;;;;;;;;;;;;;;5009684;28;19924;-81
2023/03/18 09:50:49;;;;;;;;;;;;;;;;;;5018203;28;19913;-81
2023/03/18 09:53:15;;;;;;;;;;;;;;;;;;5009806;28;20350;-82
2023/03/18 09:55:41;;;;;;;;;;;;;;;;;;5016905;28;19928;-82
2023/03/18 09:58:06;;;;;;;;;;;;;;;;;;5018156;28;19983;-82
2023/03/18 10:00:32;;;;;;;;;;;;;;;;;;5015218;28;19913;-82
2023/03/18 10:02:58;;;;;;;;;;;;;;;;;;5015234;28;19920;-82
2023/03/18 10:05:26;;;;;;;;;;;;;;;;;;5005549;28;19925;-82
2023/03/18 10:07:51;;;;;;;;;;;;;;;;;;5006790;28;19917;-81
2023/03/18 10:10:16;;;;;;;;;;;;;;;;;;5013051;28;20365;-82
2023/03/18 10:12:44;;;;;;;;;;;;;;;;;;5014101;28;19917;-82
2023/03/18 10:15:09;;;;;;;;;;;;;;;;;;5016470;28;19917;-82
2023/03/18 10:17:35;;;;;;;;;;;;;;;;;;5010890;28;19928;-81
2023/03/18 10:20:01;;;;;;;;;;;;;;;;;;5020004;28;20345;-82
2023/03/18 10:22:28;;;;;;;;;;;;;;;;;;5020834;28;19913;-82
2023/03/18 10:24:54;;;;;;;;;;;;;;;;;;5019732;28;19925;-82
2023/03/18 10:27:20;;;;;;;;;;;;;;;;;;5015279;28;19913;-82
2023/03/18 10:29:45;;;;;;;;;;;;;;;;;;5013795;28;20437;-82
2023/03/18 10:32:10;;;;;;;;;;;;;;;;;;5017348;28;19960;-82
2023/03/18 10:34:35;;;;;;;;;;;;;;;;;;5012369;28;20434;-82
2023/03/18 10:37:00;;;;;;;;;;;;;;;;;;5016663;28;20375;-82
2023/03/18 10:39:26;;;;;;;;;;;;;;;;;;5016812;28;20393;-82
2023/03/18 10:41:51;;;;;;;;;;;;;;;;;;5018178;28;19963;-83
2023/03/18 10:44:17;;;;;;;;;;;;;;;;;;5012521;28;19924;-82
2023/03/18 10:46:42;;;;;;;;;;;;;;;;;;5019513;28;19924;-82
2023/03/18 10:49:07;;;;;;;;;;;;;;;;;;5018701;28;19913;-82
2023/03/18 10:51:33;;;;;;;;;;;;;;;;;;5022318;28;20474;-82
2023/03/18 10:53:58;;;;;;;;;;;;;;;;;;5020501;28;19913;-82
2023/03/18 10:56:23;;;;;;;;;;;;;;;;;;5024705;28;19920;-81
2023/03/18 10:58:49;;;;;;;;;;;;;;;;;;5020958;28;20871;-83
2023/03/18 11:01:15;;;;;;;;;;;;;;;;;;5026908;28;19914;-83
2023/03/18 11:03:40;;;;;;;;;;;;;;;;;;5018817;28;19933;-83
2023/03/18 11:06:06;;;;;;;;;;;;;;;;;;5021094;28;19925;-83
2023/03/18 11:08:34;;;;;;;;;;;;;;;;;;5023496;28;19917;-82
2023/03/18 11:10:59;;;;;;;;;;;;;;;;;;5020182;28;19941;-82
2023/03/18 11:13:25;;;;;;;;;;;;;;;;;;5023738;28;19917;-82
2023/03/18 11:15:51;;;;;;;;;;;;;;;;;;5025233;28;19957;-82
2023/03/18 11:18:16;;;;;;;;;;;;;;;;;;5016311;28;19987;-82
2023/03/18 11:20:46;;;;;;;;;;;;;;;;;;5019140;28;19967;-82
2023/03/18 11:23:12;;;;;;;;;;;;;;;;;;5026688;28;19980;-83
2023/03/18 11:25:37;;;;;;;;;;;;;;;;;;5021072;28;19924;-83
2023/03/18 11:28:02;;;;;;;;;;;;;;;;;;5027042;28;19925;-82
2023/03/18 11:30:28;;;;;;;;;;;;;;;;;;5026492;28;20343;-82
2023/03/18 11:32:53;;;;;;;;;;;;;;;;;;5020593;28;20422;-83
2023/03/18 11:35:18;;;;;;;;;;;;;;;;;;5028009;28;20378;-83
2023/03/18 11:37:44;;;;;;;;;;;;;;;;;;5016343;28;19952;-82
2023/03/18 11:40:10;;;;;;;;;;;;;;;;;;5020410;28;19963;-82
2023/03/18 11:42:36;;;;;;;;;;;;;;;;;;5028576;28;19925;-83
2023/03/18 11:45:02;;;;;;;;;;;;;;;;;;5025715;28;19925;-83
2023/03/18 11:47:27;;;;;;;;;;;;;;;;;;5021321;28;20549;-83
2023/03/18 11:49:53;;;;;;;;;;;;;;;;;;5024795;28;19917;-83
2023/03/18 11:52:18;;;;;;;;;;;;;;;;;;5029928;23;19948;-87
2023/03/18 11:54:46;;;;;;;;;;;;;;;;;;5003393;28;20056;-86
2023/03/18 11:57:11;;;;;;;;;;;;;;;;;;5001617;28;19929;-87
2023/03/18 11:59:37;;;;;;;;;;;;;;;;;;5005757;28;20019;-85
2023/03/18 12:02:03;;;;;;;;;;;;;;;;;;5007305;28;20376;-86
2023/03/18 12:04:28;;;;;;;;;;;;;;;;;;5002211;28;19922;-87
2023/03/18 12:06:54;;;;;;;;;;;;;;;;;;5005291;28;20461;-87
2023/03/18 12:09:20;;;;;;;;;;;;;;;;;;5003014;28;19914;-86
2023/03/18 12:11:45;;;;;;;;;;;;;;;;;;5004545;28;19914;-85
2023/03/18 12:14:11;;;;;;;;;;;;;;;;;;5000066;28;20023;-86
2023/03/18 12:16:39;;;;;;;;;;;;;;;;;;5005227;28;19925;-87
2023/03/18 12:19:04;;;;;;;;;;;;;;;;;;5000878;28;20398;-86
2023/03/18 12:21:29;;;;;;;;;;;;;;;;;;4999217;28;19918;-87
2023/03/18 12:23:55;;;;;;;;;;;;;;;;;;5001387;28;19917;-87
2023/03/18 12:26:20;;;;;;;;;;;;;;;;;;5001788;28;20200;-86
2023/03/18 12:28:45;;;;;;;;;;;;;;;;;;5004305;28;20387;-86
2023/03/18 12:31:10;;;;;;;;;;;;;;;;;;5004539;28;19922;-87
2023/03/18 12:33:35;;;;;;;;;;;;;;;;;;5000066;28;19928;-86
2023/03/18 12:36:01;;;;;;;;;;;;;;;;;;5005359;28;19917;-86
2023/03/18 12:38:26;;;;;;;;;;;;;;;;;;5006167;28;19910;-86
2023/03/18 12:40:51;;;;;;;;;;;;;;;;;;5003824;28;19918;-87
2023/03/18 12:43:16;;;;;;;;;;;;;;;;;;5000685;28;19914;-87
2023/03/18 12:45:41;;;;;;;;;;;;;;;;;;5000590;28;20466;-86
2023/03/18 12:48:07;;;;;;;;;;;;;;;;;;5005029;28;19925;-86
2023/03/18 12:50:32;;;;;;;;;;;;;;;;;;5002039;28;20004;-88
2023/03/18 12:52:57;;;;;;;;;;;;;;;;;;5003556;28;20283;-85
2023/03/18 12:55:22;;;;;;;;;;;;;;;;;;4999744;28;19917;-86
2023/03/18 12:57:48;;;;;;;;;;;;;;;;;;5000836;28;20003;-86
2023/03/18 13:00:13;;;;;;;;;;;;;;;;;;5009893;28;19920;-86
2023/03/18 13:02:38;;;;;;;;;;;;;;;;;;5001412;28;19996;-86
2023/03/18 13:05:04;;;;;;;;;;;;;;;;;;5006288;28;19925;-86
2023/03/18 13:07:29;;;;;;;;;;;;;;;;;;5003557;28;19920;-85
2023/03/18 13:09:55;;;;;;;;;;;;;;;;;;5006590;28;19964;-88
2023/03/18 13:12:20;;;;;;;;;;;;;;;;;;5005020;28;19918;-86
2023/03/18 13:14:45;;;;;;;;;;;;;;;;;;5001593;28;19914;-86
2023/03/18 13:17:11;;;;;;;;;;;;;;;;;;4998781;28;19917;-86
2023/03/18 13:19:36;;;;;;;;;;;;;;;;;;5005737;28;19917;-86
2023/03/18 13:22:01;;;;;;;;;;;;;;;;;;5005986;28;19913;-87
2023/03/18 13:24:26;;;;;;;;;;;;;;;;;;5000242;28;19949;-87
2023/03/18 13:26:51;;;;;;;;;;;;;;;;;;5002003;28;19920;-87
2023/03/18 13:29:16;;;;;;;;;;;;;;;;;;5000917;28;19913;-86
2023/03/18 13:31:42;;;;;;;;;;;;;;;;;;5003490;28;20363;-87
2023/03/18 13:34:07;;;;;;;;;;;;;;;;;;5006580;28;19913;-86
2023/03/18 13:36:32;;;;;;;;;;;;;;;;;;4999311;28;19920;-86
2023/03/18 13:38:57;;;;;;;;;;;;;;;;;;5000706;28;20282;-86
2023/03/18 13:41:24;;;;;;;;;;;;;;;;;;5000154;28;20394;-88
2023/03/18 13:43:50;;;;;;;;;;;;;;;;;;5002034;28;20003;-85
2023/03/18 13:46:15;;;;;;;;;;;;;;;;;;5002202;28;19924;-87
2023/03/18 13:48:40;;;;;;;;;;;;;;;;;;5003417;28;19921;-86
2023/03/18 13:51:06;;;;;;;;;;;;;;;;;;5001999;28;20023;-88
2023/03/18 13:53:31;;;;;;;;;;;;;;;;;;5001160;28;20394;-85
2023/03/18 13:55:56;;;;;;;;;;;;;;;;;;5001118;28;20149;-85
2023/03/18 13:58:22;;;;;;;;;;;;;;;;;;5002924;28;19928;-87
2023/03/18 14:00:47;;;;;;;;;;;;;;;;;;5001778;28;19924;-87
2023/03/18 14:03:13;;;;;;;;;;;;;;;;;;5003512;28;20364;-88
2023/03/18 14:05:39;;;;;;;;;;;;;;;;;;5005759;28;19949;-87
2023/03/18 14:08:04;;;;;;;;;;;;;;;;;;5009069;28;19986;-85
2023/03/18 14:10:30;;;;;;;;;;;;;;;;;;5003325;28;20363;-87
2023/03/18 14:12:57;;;;;;;;;;;;;;;;;;4994273;28;19920;-86
2023/03/18 14:15:22;;;;;;;;;;;;;;;;;;5008055;28;19921;-86
2023/03/18 14:17:48;;;;;;;;;;;;;;;;;;5007061;28;20409;-86
2023/03/18 14:20:13;;;;;;;;;;;;;;;;;;4995450;28;19913;-87
2023/03/18 14:22:38;;;;;;;;;;;;;;;;;;5001752;28;19914;-86
2023/03/18 14:25:04;;;;;;;;;;;;;;;;;;4998862;28;19921;-86
2023/03/18 14:27:29;;;;;;;;;;;;;;;;;;5004658;28;19925;-86
2023/03/18 14:29:55;;;;;;;;;;;;;;;;;;5005964;28;19967;-88
2023/03/18 14:32:20;;;;;;;;;;;;;;;;;;5005161;28;19929;-87
2023/03/18 14:34:46;;;;;;;;;;;;;;;;;;5007580;28;19928;-87
2023/03/18 14:37:13;;;;;;;;;;;;;;;;;;5004971;28;19914;-86
2023/03/18 14:39:38;;;;;;;;;;;;;;;;;;5004350;28;19972;-87
2023/03/18 14:42:03;;;;;;;;;;;;;;;;;;5002389;28;19922;-88
2023/03/18 14:44:29;;;;;;;;;;;;;;;;;;5003445;28;19917;-86
2023/03/18 14:46:55;;;;;;;;;;;;;;;;;;4999011;28;20327;-86
2023/03/18 14:49:20;;;;;;;;;;;;;;;;;;5004881;28;19943;-85
2023/03/18 14:51:45;;;;;;;;;;;;;;;;;;5005020;28;19917;-86
2023/03/18 14:54:10;;;;;;;;;;;;;;;;;;5007471;28;19921;-88
2023/03/18 14:56:35;;;;;;;;;;;;;;;;;;5010362;28;19917;-86
2023/03/18 14:59:00;;;;;;;;;;;;;;;;;;5004915;28;19918;-86
2023/03/18 15:01:26;;;;;;;;;;;;;;;;;;5008984;28;20007;-85
2023/03/18 15:03:51;;;;;;;;;;;;;;;;;;5009488;28;19917;-88
2023/03/18 15:06:16;;;;;;;;;;;;;;;;;;5010563;28;19969;-86
2023/03/18 15:08:42;;;;;;;;;;;;;;;;;;5005552;28;20366;-84
2023/03/18 15:11:09;;;;;;;;;;;;;;;;;;5009072;28;19929;-86
2023/03/18 15:13:35;;;;;;;;;;;;;;;;;;5007510;28;21736;-87
2023/03/18 15:16:00;;;;;;;;;;;;;;;;;;5011545;28;19924;-85
2023/03/18 15:18:26;;;;;;;;;;;;;;;;;;4997014;28;19917;-87
2023/03/18 15:20:51;;;;;;;;;;;;;;;;;;5007365;28;19923;-85
2023/03/18 15:23:16;;;;;;;;;;;;;;;;;;5005163;28;19917;-87
2023/03/18 15:25:41;;;;;;;;;;;;;;;;;;5008048;28;20222;-87
2023/03/18 15:28:07;;;;;;;;;;;;;;;;;;5014628;28;19921;-85
2023/03/18 15:30:32;;;;;;;;;;;;;;;;;;5004293;28;20008;-86
2023/03/18 15:32:58;;;;;;;;;;;;;;;;;;5006389;28;20338;-85
2023/03/18 15:35:23;;;;;;;;;;;;;;;;;;5008728;28;20441;-86
2023/03/18 15:37:48;;;;;;;;;;;;;;;;;;5012184;28;19918;-86
2023/03/18 15:40:15;;;;;;;;;;;;;;;;;;5011079;28;20145;-88
2023/03/18 15:42:41;;;;;;;;;;;;;;;;;;5004275;28;19921;-87
2023/03/18 15:45:06;;;;;;;;;;;;;;;;;;5008925;28;19924;-87
2023/03/18 15:47:32;;;;;;;;;;;;;;;;;;5008603;28;19936;-87
2023/03/18 15:49:57;;;;;;;;;;;;;;;;;;5004332;28;20387;-87
2023/03/18 15:52:23;;;;;;;;;;;;;;;;;;5006161;28;19932;-87
2023/03/18 15:54:49;;;;;;;;;;;;;;;;;;5007842;28;19918;-87
2023/03/18 15:57:14;;;;;;;;;;;;;;;;;;5011155;28;19924;-87
2023/03/18 15:59:39;;;;;;;;;;;;;;;;;;5006566;28;19960;-85
2023/03/18 16:02:05;;;;;;;;;;;;;;;;;;5002360;28;19917;-85
2023/03/18 16:04:30;;;;;;;;;;;;;;;;;;5002208;28;19980;-84
2023/03/18 16:07:21;;;;;;;;;;;;;;;;;;;;;
2023/03/18 16:12:32;;;;;;;;;;;;;;;;;;4995666;28;19925;-86
2023/03/18 16:15:41;;;;;;;;;;;;;;;;;;5006804;28;19917;-86
2023/03/18 16:23:25;;;;;;;;;;;;;;;;;;4993927;28;20429;-85
2023/03/18 16:28:38;;;;;;;;;;;;;;;;;;4968033;28;19914;-84
2023/03/18 16:33:58;;;;;;;;;;;;;;;;;;4968450;28;20008;-86
2023/03/18 16:36:36;;;;;;;;;;;;;;;;;;;;;
2023/03/18 16:39:05;;;;;;;;;;;;;;;;;;4982468;28;19921;-84
2023/03/18 16:47:10;;;;;;;;;;;;;;;;;;4927695;29;20009;-85
2023/03/18 16:52:26;;;;;;;;;;;;;;;;;;4982910;28;19921;-85
2023/03/18 16:57:45;;;;;;;;;;;;;;;;;;4975973;28;19913;-86
2023/03/18 17:00:55;;;;;;;;;;;;;;;;;;5008975;28;20306;-86
2023/03/18 17:03:12;;;;;;;;;;;;;;;;;;;;;